Friday, March 06, 2015
07:29 UTC
  |  Log In   |  Register Free
Airport Search:

La Guardia Airport
(KLGA)

FAA data valid effective March 05, 2015 - April 30, 2015 (unless otherwise noted).

 
 
 
 
 
 
 
 
 
 
 
 
 
 

Current Aviation Weather for La Guardia Airport (KLGA)

The most recent METAR observation for KLGA was updated at: 0711
METAR Summary (Translated METAR)
KLGA
060651Z 35014KT 10SM CLR M08/M16 A3041 RMK AO2 SLP297 T10781156 $
KJFK
060651Z 35013G20KT 10SM FEW150 M08/M16 A3042 RMK AO2 SLP301 T10831161
(9.3 nm SE from KLGA)
KTEB
060651Z 34011G16KT 10SM CLR M09/M17 A3042 RMK AO2 SLP301 T10941172
(9.6 nm NW from KLGA)
TAF Summary (Translated TAF)
KLGA
060535Z 0606/0706 35015G25KT P6SM SKC FM061000 35008KT P6SM SKC FM062000 VRB05KT P6SM FEW050
KJFK
(9.3 nm SE from KLGA)
060535Z 0606/0712 35015G25KT P6SM SKC FM061000 34008KT P6SM SKC FM062000 VRB04KT P6SM FEW050 FM070600 26010KT P6SM BKN150
  Airport Weather Conditions for KLGA

 Current Weather at LGA
18° F
Fair
North winds at 16.1 mph
LGA NOAA Radar

Pressure: 30.41 in
Humidity: 54%
Wind: North at 16.1 MPH (14 KT)
Dew Point: 3.9°F
Visibility: 10.00 mi


Airport Weather Forecast for KLGA

Translated METAR and TAF for KLGA
Translated METAR for KLGA (0729 UTC 06 March 2015)
found at http://aviationweather.gov/adds/metars/
 
METAR text: KLGA 060651Z 35014KT 10SM CLR M08/M16 A3041 RMK AO2 SLP297 T10781156 $
Conditions at: KLGA (NYC/LA GUARDIA , NY, US) observed 0651 UTC 06 March 2015
Temperature: -7.8°C (18°F)
Dewpoint: -15.6°C (4°F) [RH = 53%]
Pressure (altimeter): 30.41 inches Hg (1029.9 mb)
[Sea-level pressure: 1029.7 mb]
Winds: from the N (350 degrees) at 16 MPH (14 knots; 7.3 m/s)
Visibility: 10 or more miles (16+ km)
Ceiling: at least 12,000 feet AGL
Clouds: sky clear below 12,000 feet AGL
Weather:
SOME DATA ABOVE MAY BE INACCURATE!!!
"$" is an indication the sensor requires maintenance
Translated TAF for KLGA
Forecast for: KLGA (NYC/LA GUARDIA , NY, US)
TAF Text: KLGA 060535Z 0606/0706 35015G25KT P6SM SKC
Forecast period: 0600 to 1000 UTC 06 March 2015
Forecast type: FROM: standard forecast or significant change
Winds: from the N (350 degrees) at 17 MPH (15 knots; 7.8 m/s)
gusting to 29 MPH (25 knots; 13.0 m/s)
Visibility: 6 or more miles (10+ km)
Clouds: clear skies
Weather: no significant weather forecast for this period
TAF Text: FM061000 35008KT P6SM SKC
Forecast period: 1000 to 2000 UTC 06 March 2015
Forecast type: FROM: standard forecast or significant change
Winds: from the N (350 degrees) at 9 MPH (8 knots; 4.2 m/s)
Visibility: 6 or more miles (10+ km)
Clouds: clear skies
Weather: no significant weather forecast for this period
TAF Text: FM062000 VRB05KT P6SM FEW050
Forecast period: 2000 UTC 06 March 2015 to 0600 UTC 07 March 2015
Forecast type: FROM: standard forecast or significant change
Winds: variable direction winds at 6 MPH (5 knots; 2.6 m/s)
Visibility: 6 or more miles (10+ km)
Clouds: few clouds at 5000 feet AGL
Weather: no significant weather forecast for this period

Find All Airport Services Find A Hotel Find A Rental Car Find A Golf Course Find A Restaurant $100 Hamburger



FBO's on the Field
FBO Company Facility Photos Services Transportation Aviation Fuel Prices: Prices include tax
Catering Weather Repair Courtesy Rental Type 100LL JetA JetA+ MOGAS 8087
 
Sheltair

This FBO has not yet been rated
FS:Avfuel
Last Updated: Mar-04
Login to update fuel prices
SS:
Contact SheltairMore FBO Information
 
Add another FBO Facility Photos Catering Weather Repair Courtesy Rental Type 100LL JetA JetA+ MOGAS 8087
Services Transportation Aviation Fuel Prices: Prices include tax


model-print
model-print
model-print
model-print